| time (UTC) | temp C | wind direction | speed KPH | gust KPH | rain 1hr cm | rain 24hr cm | rain mn cm | humidity % | barometer mb |
| 20260503200122 | 23 | 192 | 8.0 | 19.3 | 0.00 | 0.00 | 0.00 | 45 | 1014.0 |
| 20260503195122 | 25 | 205 | 8.0 | 20.9 | 0.00 | 0.00 | 0.00 | 39 | 1014.2 |
| 20260503194122 | 23 | 172 | 8.0 | 20.9 | 0.00 | 0.00 | 0.00 | 46 | 1014.4 |
| 20260503193122 | 23 | 177 | 8.0 | 20.9 | 0.00 | 0.00 | 0.00 | 46 | 1014.4 |
| 20260503192144 | 22 | 175 | 8.0 | 16.1 | 0.00 | 0.00 | 0.00 | 49 | 1014.4 |
| 20260503191144 | 23 | 202 | 6.4 | 14.5 | 0.00 | 0.00 | 0.00 | 46 | 1014.5 |
| 20260503190144 | 23 | 221 | 6.4 | 19.3 | 0.00 | 0.00 | 0.00 | 43 | 1014.7 |
| 20260503185124 | 23 | 228 | 9.7 | 20.9 | 0.00 | 0.00 | 0.00 | 40 | 1014.8 |
| 20260503184123 | 23 | 231 | 8.0 | 20.9 | 0.00 | 0.00 | 0.00 | 44 | 1014.9 |
| 20260503183123 | 23 | 232 | 8.0 | 17.7 | 0.00 | 0.00 | 0.00 | 47 | 1014.9 |
| 20260503182123 | 22 | 226 | 8.0 | 19.3 | 0.00 | 0.00 | 0.00 | 49 | 1014.9 |
| 20260503181123 | 21 | 173 | 6.4 | 16.1 | 0.00 | 0.00 | 0.00 | 55 | 1014.9 |
| 20260503180124 | 20 | 177 | 6.4 | 14.5 | 0.00 | 0.00 | 0.00 | 60 | 1015.0 |
| 20260503175122 | 20 | 194 | 6.4 | 12.9 | 0.00 | 0.00 | 0.00 | 61 | 1015.0 |
| 20260503174122 | 20 | 207 | 6.4 | 12.9 | 0.00 | 0.00 | 0.00 | 60 | 1015.0 |
| 20260503173143 | 19 | 208 | 4.8 | 12.9 | 0.00 | 0.00 | 0.00 | 63 | 1015.0 |
| 20260503172122 | 18 | 216 | 6.4 | 12.9 | 0.00 | 0.00 | 0.00 | 63 | 1015.0 |
| 20260503171122 | 20 | 182 | 4.8 | 12.9 | 0.00 | 0.00 | 0.00 | 59 | 1015.0 |
| 20260503170122 | 19 | 153 | 6.4 | 12.9 | 0.00 | 0.00 | 0.00 | 59 | 1015.2 |
| 20260503160124 | 18 | 174 | 4.8 | 9.7 | 0.00 | 0.00 | 0.00 | 62 | 1015.5 |
| 20260503150124 | 17 | 197 | 0.0 | 4.8 | 0.00 | 0.00 | 0.00 | 66 | 1015.5 |
| 20260503140124 | 12 | 360 | 0.0 | 0.0 | 0.00 | 0.00 | 0.00 | 84 | 1015.7 |
| 20260503131124 | 10 | 180 | 0.0 | 0.0 | 0.00 | 0.00 | 0.00 | 89 | 1015.4 |
| 20260503130124 | 10 | 19 | 1.6 | 4.8 | 0.00 | 0.00 | 0.00 | 89 | 1015.2 |
| 20260503120123 | 10 | 347 | 3.2 | 6.4 | 0.00 | 0.00 | 0.00 | 87 | 1015.2 |
| 20260503110124 | 11 | 35 | 0.0 | 4.8 | 0.00 | 0.00 | 0.00 | 86 | 1015.3 |
| 20260503100123 | 11 | 2 | 3.2 | 6.4 | 0.00 | 0.00 | 0.00 | 82 | 1015.4 |
| 20260503090124 | 12 | 352 | 3.2 | 6.4 | 0.00 | 0.00 | 0.00 | 81 | 1015.2 |
| 20260503081123 | 12 | 343 | 1.6 | 8.0 | 0.00 | 0.00 | 0.00 | 82 | 1015.0 |
| 20260503080124 | 12 | 315 | 0.0 | 0.0 | 0.00 | 0.00 | 0.00 | 82 | 1015.0 |
| 20260503072124 | 13 | 339 | 1.6 | 8.0 | 0.00 | 0.00 | 0.00 | 80 | 1015.0 |
| 20260503070122 | 14 | 23 | 0.0 | 0.0 | 0.00 | 0.00 | 0.00 | 79 | 1014.9 |
| 20260503060123 | 15 | 19 | 1.6 | 6.4 | 0.00 | 0.00 | 0.00 | 75 | 1014.5 |
| 20260503054123 | 15 | 351 | 3.2 | 4.8 | 0.00 | 0.00 | 0.00 | 74 | 1014.5 |
| 20260503053122 | 15 | 343 | 1.6 | 4.8 | 0.00 | 0.00 | 0.00 | 73 | 1014.5 |
| 20260503052122 | 15 | 360 | 0.0 | 0.0 | 0.00 | 0.00 | 0.00 | 72 | 1014.5 |
| 20260503051122 | 15 | 278 | 1.6 | 6.4 | 0.00 | 0.00 | 0.00 | 70 | 1014.5 |
| 20260503050124 | 16 | 360 | 0.0 | 0.0 | 0.00 | 0.00 | 0.00 | 69 | 1014.4 |
| 20260503045122 | 16 | 360 | 0.0 | 0.0 | 0.00 | 0.00 | 0.00 | 67 | 1014.3 |
| 20260503044143 | 16 | 45 | 0.0 | 0.0 | 0.00 | 0.00 | 0.00 | 68 | 1014.2 |
| 20260503043122 | 17 | 338 | 0.0 | 0.0 | 0.00 | 0.00 | 0.00 | 62 | 1014.2 |
| 20260503042123 | 17 | 23 | 0.0 | 0.0 | 0.00 | 0.00 | 0.00 | 60 | 1014.0 |
| 20260503041123 | 18 | 57 | 0.0 | 4.8 | 0.00 | 0.00 | 0.00 | 57 | 1014.0 |
| 20260503040122 | 18 | 53 | 0.0 | 6.4 | 0.00 | 0.00 | 0.00 | 55 | 1013.9 |
| 20260503035123 | 19 | 18 | 1.6 | 6.4 | 0.00 | 0.00 | 0.00 | 53 | 1013.8 |
| 20260503034122 | 20 | 322 | 3.2 | 8.0 | 0.00 | 0.00 | 0.00 | 51 | 1013.7 |
| 20260503033122 | 20 | 283 | 4.8 | 17.7 | 0.00 | 0.00 | 0.00 | 49 | 1013.7 |
| 20260503032122 | 20 | 289 | 6.4 | 17.7 | 0.00 | 0.00 | 0.00 | 48 | 1013.5 |
| 20260503031122 | 20 | 285 | 8.0 | 27.4 | 0.00 | 0.00 | 0.00 | 47 | 1013.7 |
| 20260503030123 | 20 | 274 | 6.4 | 16.1 | 0.00 | 0.00 | 0.00 | 47 | 1013.5 |
| 20260503025123 | 21 | 284 | 6.4 | 19.3 | 0.00 | 0.00 | 0.00 | 45 | 1013.5 |
| 20260503024122 | 21 | 325 | 6.4 | 16.1 | 0.00 | 0.00 | 0.00 | 43 | 1013.5 |
| 20260503023122 | 22 | 273 | 6.4 | 27.4 | 0.00 | 0.00 | 0.00 | 41 | 1013.5 |
| 20260503022122 | 22 | 264 | 6.4 | 20.9 | 0.00 | 0.00 | 0.00 | 40 | 1013.5 |
| 20260503021123 | 23 | 258 | 8.0 | 25.7 | 0.00 | 0.00 | 0.00 | 39 | 1013.5 |
| 20260503020122 | 23 | 266 | 8.0 | 29.0 | 0.00 | 0.00 | 0.00 | 39 | 1013.7 |
| 20260503015122 | 23 | 273 | 6.4 | 20.9 | 0.00 | 0.00 | 0.00 | 39 | 1013.8 |
| 20260503014122 | 23 | 282 | 8.0 | 29.0 | 0.00 | 0.00 | 0.00 | 38 | 1013.9 |
| 20260503013122 | 23 | 294 | 8.0 | 22.5 | 0.00 | 0.00 | 0.00 | 37 | 1013.9 |
| 20260503012123 | 23 | 216 | 8.0 | 25.7 | 0.00 | 0.00 | 0.00 | 37 | 1014.0 |
| 20260503011123 | 24 | 268 | 8.0 | 24.1 | 0.00 | 0.00 | 0.00 | 37 | 1014.0 |
| 20260503010122 | 23 | 249 | 8.0 | 29.0 | 0.00 | 0.00 | 0.00 | 38 | 1014.0 |
| 20260503005143 | 23 | 227 | 9.7 | 32.2 | 0.00 | 0.00 | 0.00 | 39 | 1014.3 |
| 20260503004122 | 23 | 212 | 9.7 | 30.6 | 0.00 | 0.00 | 0.00 | 40 | 1014.3 |
| 20260503003123 | 23 | 246 | 9.7 | 25.7 | 0.00 | 0.00 | 0.00 | 40 | 1014.3 |
| 20260503002123 | 23 | 229 | 9.7 | 29.0 | 0.00 | 0.00 | 0.00 | 39 | 1014.4 |
| 20260503001123 | 23 | 236 | 8.0 | 25.7 | 0.00 | 0.00 | 0.00 | 40 | 1014.5 |
| 20260503000144 | 23 | 245 | 9.7 | 22.5 | 0.00 | 0.00 | 0.00 | 41 | 1014.7 |
| 20260502235143 | 23 | 254 | 9.7 | 25.7 | 0.00 | 0.00 | 0.00 | 41 | 1014.9 |
| 20260502234122 | 24 | 235 | 8.0 | 24.1 | 0.00 | 0.00 | 0.00 | 41 | 1014.9 |
| 20260502233122 | 23 | 227 | 9.7 | 25.7 | 0.00 | 0.00 | 0.00 | 41 | 1014.9 |
| 20260502232122 | 23 | 306 | 9.7 | 25.7 | 0.00 | 0.00 | 0.00 | 41 | 1015.0 |
| 20260502231143 | 24 | 238 | 9.7 | 30.6 | 0.00 | 0.00 | 0.00 | 40 | 1015.0 |
| 20260502230123 | 23 | 254 | 8.0 | 29.0 | 0.00 | 0.00 | 0.00 | 40 | 1015.3 |
| 20260502225123 | 25 | 278 | 8.0 | 24.1 | 0.00 | 0.00 | 0.00 | 41 | 1015.5 |
| 20260502224122 | 25 | 268 | 6.4 | 16.1 | 0.00 | 0.00 | 0.00 | 42 | 1015.7 |
| 20260502223124 | 23 | 290 | 8.0 | 29.0 | 0.00 | 0.00 | 0.00 | 44 | 1015.7 |
| 20260502222143 | 23 | 241 | 8.0 | 22.5 | 0.00 | 0.00 | 0.00 | 45 | 1015.9 |
| 20260502221122 | 23 | 286 | 6.4 | 16.1 | 0.00 | 0.00 | 0.00 | 43 | 1015.9 |
| 20260502220123 | 23 | 279 | 6.4 | 20.9 | 0.00 | 0.00 | 0.00 | 44 | 1016.0 |
| 20260502215122 | 24 | 302 | 6.4 | 19.3 | 0.00 | 0.00 | 0.00 | 43 | 1016.3 |
| 20260502214122 | 23 | 328 | 6.4 | 17.7 | 0.00 | 0.00 | 0.00 | 45 | 1016.5 |
| 20260502213123 | 24 | 335 | 4.8 | 19.3 | 0.00 | 0.00 | 0.00 | 45 | 1016.5 |
| 20260502212122 | 23 | 314 | 4.8 | 12.9 | 0.00 | 0.00 | 0.00 | 47 | 1016.5 |
| 20260502211122 | 22 | 311 | 4.8 | 16.1 | 0.00 | 0.00 | 0.00 | 48 | 1016.8 |
| 20260502210122 | 22 | 282 | 4.8 | 14.5 | 0.00 | 0.00 | 0.00 | 50 | 1016.9 |
| 20260502205123 | 20 | 209 | 11.3 | 24.1 | 0.00 | 0.00 | 0.00 | 55 | 1017.0 |
| 20260502204122 | 20 | 213 | 9.7 | 22.5 | 0.00 | 0.00 | 0.00 | 55 | 1017.2 |
| 20260502203122 | 20 | 212 | 8.0 | 22.5 | 0.00 | 0.00 | 0.00 | 54 | 1017.2 |
| 20260502202123 | 20 | 217 | 8.0 | 20.9 | 0.00 | 0.00 | 0.00 | 55 | 1017.3 |
| 20260502201122 | 20 | 222 | 9.7 | 22.5 | 0.00 | 0.00 | 0.00 | 57 | 1017.4 |